createdAt,value
2019-03-30T00:02:03.494Z,42.53
2019-03-30T00:04:34.588Z,41.23
2019-03-30T00:07:04.836Z,40.70
2019-03-30T00:09:35.108Z,38.40
2019-03-30T00:12:05.591Z,41.57
2019-03-30T00:14:35.907Z,41.10
2019-03-30T00:17:06.313Z,41.83
2019-03-30T00:19:36.495Z,39.13
2019-03-30T00:22:07.061Z,40.87
2019-03-30T00:24:38.800Z,41.20
2019-03-30T00:27:09.116Z,40.27
2019-03-30T00:29:39.111Z,38.27
2019-03-30T00:32:09.614Z,39.00
2019-03-30T00:34:39.560Z,38.13
2019-03-30T00:37:09.847Z,40.17
2019-03-30T00:39:40.476Z,42.20
2019-03-30T00:42:11.620Z,40.63
2019-03-30T00:44:42.277Z,40.17
2019-03-30T00:47:13.839Z,39.40
2019-03-30T00:49:49.791Z,38.37
2019-03-30T00:52:16.239Z,41.60
2019-03-30T00:54:46.433Z,43.33
2019-03-30T00:57:16.375Z,41.13
2019-03-30T00:59:46.666Z,43.30
2019-03-30T01:02:16.673Z,44.97
2019-03-30T01:04:46.719Z,43.47
2019-03-30T01:07:17.024Z,41.17
2019-03-30T01:09:48.258Z,44.70
2019-03-30T01:12:18.549Z,40.83
2019-03-30T01:14:48.773Z,38.30
2019-03-30T01:17:19.463Z,39.00
2019-03-30T01:20:02.415Z,40.20
2019-03-30T01:22:22.102Z,42.83
2019-03-30T01:24:52.040Z,39.53
2019-03-30T01:27:22.640Z,39.73
2019-03-30T01:29:52.497Z,40.40
2019-03-30T01:32:22.945Z,40.30
2019-03-30T01:34:56.773Z,42.20
2019-03-30T01:37:27.047Z,41.63
2019-03-30T01:39:57.304Z,38.47
2019-03-30T01:42:27.229Z,40.67
2019-03-30T01:44:57.441Z,40.43
2019-03-30T01:47:28.068Z,37.40
2019-03-30T01:49:58.056Z,38.43
2019-03-30T01:52:28.268Z,35.17
2019-03-30T01:54:59.343Z,39.57
2019-03-30T01:57:29.328Z,40.73
2019-03-30T02:00:00.151Z,41.30
2019-03-30T02:02:30.586Z,41.80
2019-03-30T02:05:01.428Z,39.10
2019-03-30T02:07:32.690Z,37.80
2019-03-30T02:10:02.734Z,39.80
2019-03-30T02:12:33.997Z,39.70
2019-03-30T02:15:04.147Z,40.07
2019-03-30T02:17:34.686Z,38.13
2019-03-30T02:20:05.648Z,40.23
2019-03-30T02:22:36.315Z,39.53
2019-03-30T02:25:07.433Z,39.67
2019-03-30T02:27:39.293Z,38.50
2019-03-30T02:30:09.770Z,37.90
2019-03-30T02:32:40.434Z,37.27
2019-03-30T02:35:11.647Z,40.63
2019-03-30T02:37:43.486Z,35.30
2019-03-30T02:40:13.783Z,38.70
2019-03-30T02:42:45.007Z,39.27
2019-03-30T02:45:15.118Z,41.40
2019-03-30T02:47:45.305Z,40.00
2019-03-30T02:50:15.833Z,43.60
2019-03-30T02:52:46.926Z,41.73
2019-03-30T02:55:17.406Z,40.20
2019-03-30T02:57:48.831Z,36.70
2019-03-30T03:00:19.892Z,37.83
2019-03-30T03:02:50.203Z,44.20
2019-03-30T03:05:25.097Z,38.63
2019-03-30T03:07:55.480Z,38.07
2019-03-30T03:10:27.743Z,38.33
2019-03-30T03:12:59.279Z,47.03
2019-03-30T03:15:29.546Z,40.13
2019-03-30T03:18:00.640Z,38.03
2019-03-30T03:20:32.285Z,39.07
2019-03-30T03:23:03.002Z,39.30
2019-03-30T03:25:33.149Z,37.73
2019-03-30T03:28:03.520Z,36.93
2019-03-30T03:30:33.566Z,39.40
2019-03-30T03:33:03.775Z,37.47
2019-03-30T03:35:34.169Z,37.17
2019-03-30T03:38:04.652Z,35.70
2019-03-30T03:40:34.642Z,38.23
2019-03-30T03:43:04.892Z,37.67
2019-03-30T03:45:34.923Z,38.07
2019-03-30T03:48:05.323Z,38.30
2019-03-30T03:50:42.496Z,37.87
2019-03-30T03:53:14.987Z,36.73
2019-03-30T03:55:45.752Z,38.07
2019-03-30T03:58:17.552Z,39.90
2019-03-30T04:00:51.013Z,38.60
2019-03-30T04:03:21.882Z,36.07
2019-03-30T04:05:53.601Z,39.20
2019-03-30T04:08:26.837Z,41.63
2019-03-30T04:10:58.874Z,37.07
2019-03-30T04:13:30.679Z,36.53
2019-03-30T04:16:00.676Z,40.03
2019-03-30T04:18:30.635Z,38.67
2019-03-30T04:21:00.623Z,38.37
2019-03-30T04:23:31.027Z,39.23
2019-03-30T04:26:01.043Z,44.73
2019-03-30T04:28:32.528Z,40.77
2019-03-30T04:31:03.100Z,37.23
2019-03-30T04:33:33.085Z,39.33
2019-03-30T04:36:04.212Z,38.13
2019-03-30T04:38:34.517Z,42.70
2019-03-30T04:41:05.685Z,42.80
2019-03-30T04:43:35.716Z,38.37
2019-03-30T04:46:07.043Z,36.47
2019-03-30T04:48:37.487Z,35.90
2019-03-30T04:51:08.534Z,40.53
2019-03-30T04:53:38.920Z,36.10
2019-03-30T04:56:08.853Z,36.20
2019-03-30T04:58:39.193Z,40.87
2019-03-30T05:01:09.413Z,41.60
2019-03-30T05:03:40.437Z,43.40
2019-03-30T05:06:10.685Z,39.53
2019-03-30T05:08:41.612Z,35.83
2019-03-30T05:11:11.998Z,38.07
2019-03-30T05:13:42.112Z,40.87
2019-03-30T05:16:12.312Z,40.23
2019-03-30T05:18:43.657Z,42.97
2019-03-30T05:21:13.849Z,36.40
2019-03-30T05:23:43.813Z,37.27
2019-03-30T05:26:14.304Z,35.23
2019-03-30T05:28:44.604Z,36.17
2019-03-30T05:31:14.526Z,40.10
2019-03-30T05:33:44.469Z,35.93
2019-03-30T05:36:14.357Z,37.57
2019-03-30T05:38:44.873Z,36.57
2019-03-30T05:41:15.169Z,38.50
2019-03-30T05:43:46.843Z,35.77
2019-03-30T05:46:16.686Z,39.17
2019-03-30T05:48:46.845Z,38.80
2019-03-30T05:51:16.834Z,39.10
2019-03-30T05:53:46.771Z,40.30
2019-03-30T05:56:16.864Z,38.03
2019-03-30T05:58:47.090Z,38.00
2019-03-30T06:01:17.480Z,37.63
2019-03-30T06:03:48.292Z,38.87
2019-03-30T06:06:18.832Z,38.20
2019-03-30T06:08:49.166Z,40.70
2019-03-30T06:11:19.692Z,40.23
2019-03-30T06:13:49.797Z,35.20
2019-03-30T06:16:20.538Z,36.70
2019-03-30T06:18:50.915Z,38.33
2019-03-30T06:21:21.040Z,38.30
2019-03-30T06:23:51.654Z,33.73
2019-03-30T06:26:21.938Z,36.27
2019-03-30T06:28:52.772Z,39.77
2019-03-30T06:31:23.709Z,38.87
2019-03-30T06:33:54.987Z,39.33
2019-03-30T06:36:24.933Z,36.93
2019-03-30T06:38:55.117Z,38.27
2019-03-30T06:41:26.141Z,39.57
2019-03-30T06:43:56.443Z,40.60
2019-03-30T06:46:26.332Z,39.97
2019-03-30T06:48:56.199Z,39.17
2019-03-30T06:51:26.105Z,38.90
2019-03-30T06:53:56.794Z,40.63
2019-03-30T06:56:27.177Z,38.27
2019-03-30T06:58:57.617Z,38.27
2019-03-30T07:01:28.117Z,38.20
2019-03-30T07:03:58.210Z,36.77
2019-03-30T07:06:29.433Z,36.60
2019-03-30T07:09:02.631Z,33.17
2019-03-30T07:11:37.650Z,29.20
2019-03-30T07:14:07.745Z,30.30
2019-03-30T07:16:39.130Z,27.07
2019-03-30T07:19:09.226Z,26.80
2019-03-30T07:21:39.783Z,25.70
2019-03-30T07:24:10.128Z,24.37
2019-03-30T07:26:40.047Z,24.30
2019-03-30T07:29:11.941Z,24.50
2019-03-30T07:31:41.886Z,24.13
2019-03-30T07:34:11.976Z,25.90
2019-03-30T07:36:41.905Z,23.70
2019-03-30T07:39:11.805Z,24.30
2019-03-30T07:41:42.341Z,23.07
2019-03-30T07:44:12.364Z,23.87
2019-03-30T07:46:42.534Z,23.40
2019-03-30T07:49:12.911Z,24.77
2019-03-30T07:51:43.958Z,23.40
2019-03-30T07:54:14.146Z,24.13
2019-03-30T07:56:44.016Z,24.37
2019-03-30T07:59:14.098Z,24.27
2019-03-30T08:01:44.244Z,24.17
2019-03-30T08:04:15.098Z,23.43
2019-03-30T08:06:46.746Z,23.97
2019-03-30T08:09:18.146Z,22.63
2019-03-30T08:11:48.199Z,22.50
2019-03-30T08:14:18.462Z,22.90
2019-03-30T08:16:50.013Z,23.47
2019-03-30T08:19:21.734Z,22.87
2019-03-30T08:21:52.031Z,22.27
2019-03-30T08:24:22.621Z,22.53
2019-03-30T08:26:52.820Z,22.93
2019-03-30T08:29:23.085Z,23.63
2019-03-30T08:31:53.212Z,23.00
2019-03-30T08:34:23.637Z,23.57
2019-03-30T08:36:53.606Z,23.80
2019-03-30T08:39:24.484Z,23.30
2019-03-30T08:41:54.721Z,22.17
2019-03-30T08:44:24.937Z,22.40
2019-03-30T08:46:55.153Z,24.03
2019-03-30T08:49:25.178Z,22.30
2019-03-30T08:51:55.111Z,24.30
2019-03-30T08:54:25.293Z,23.63
2019-03-30T08:56:55.550Z,23.33
2019-03-30T08:59:25.759Z,24.07
2019-03-30T09:01:56.076Z,22.83
2019-03-30T09:04:26.380Z,23.73
2019-03-30T09:06:56.816Z,23.13
2019-03-30T09:09:29.295Z,24.10
2019-03-30T09:11:59.241Z,23.40
2019-03-30T09:14:33.733Z,23.60
2019-03-30T09:17:05.046Z,24.23
2019-03-30T09:19:37.612Z,24.00
2019-03-30T09:22:08.000Z,24.27
2019-03-30T09:24:38.590Z,24.37
2019-03-30T09:27:08.724Z,25.33
2019-03-30T09:29:39.204Z,24.63
2019-03-30T09:32:14.664Z,24.37
2019-03-30T09:34:41.181Z,25.37
2019-03-30T09:37:11.114Z,28.02
2019-03-30T09:39:40.960Z,28.47
2019-03-30T09:42:11.251Z,27.43
2019-03-30T09:44:42.552Z,26.63
2019-03-30T09:47:13.188Z,25.97
2019-03-30T09:49:48.354Z,26.33
2019-03-30T09:52:19.377Z,26.50
2019-03-30T09:54:52.383Z,25.57
2019-03-30T09:57:22.298Z,28.13
2019-03-30T09:59:52.666Z,28.80
2019-03-30T10:02:22.894Z,27.10
2019-03-30T10:04:53.116Z,27.87
2019-03-30T10:07:23.172Z,26.50
2019-03-30T10:09:53.307Z,27.07
2019-03-30T10:12:25.904Z,27.43
2019-03-30T10:14:56.615Z,27.20
2019-03-30T10:17:26.628Z,26.83
2019-03-30T10:20:04.320Z,28.03
2019-03-30T10:22:28.817Z,26.60
2019-03-30T10:24:58.772Z,26.40
2019-03-30T10:27:29.628Z,27.60
2019-03-30T10:29:59.682Z,27.70
2019-03-30T10:32:32.718Z,27.97
2019-03-30T10:35:03.523Z,29.43
2019-03-30T10:37:33.711Z,29.33
2019-03-30T10:40:03.915Z,27.90
2019-03-30T10:42:34.378Z,28.20
2019-03-30T10:45:05.034Z,28.83
2019-03-30T10:47:35.617Z,29.77
2019-03-30T10:50:06.773Z,29.90
2019-03-30T10:52:37.194Z,28.43
2019-03-30T10:55:07.173Z,29.93
2019-03-30T10:57:39.719Z,29.17
2019-03-30T11:00:11.864Z,29.27
2019-03-30T11:02:42.004Z,29.07
2019-03-30T11:05:12.152Z,27.07
2019-03-30T11:07:42.055Z,28.80
2019-03-30T11:10:12.026Z,29.07
2019-03-30T11:12:42.123Z,28.53
2019-03-30T11:15:12.051Z,26.97
2019-03-30T11:17:42.813Z,27.07
2019-03-30T11:20:12.906Z,28.00
2019-03-30T11:22:43.180Z,28.03
2019-03-30T11:25:13.265Z,25.30
2019-03-30T11:27:43.887Z,25.20
2019-03-30T11:30:14.197Z,28.70
2019-03-30T11:32:44.285Z,26.30
2019-03-30T11:35:14.199Z,28.20
2019-03-30T11:37:44.089Z,28.80
2019-03-30T11:40:15.850Z,27.07
2019-03-30T11:42:46.014Z,27.43
2019-03-30T11:45:16.479Z,27.60
2019-03-30T11:47:46.491Z,26.63
2019-03-30T11:50:16.823Z,29.50
2019-03-30T11:52:46.691Z,33.43
2019-03-30T11:55:22.058Z,36.57
2019-03-30T11:57:51.317Z,35.00
2019-03-30T12:00:21.773Z,34.03
2019-03-30T12:02:51.747Z,32.90
2019-03-30T12:05:22.148Z,32.37
2019-03-30T12:07:52.331Z,31.97
2019-03-30T12:10:22.656Z,32.87
2019-03-30T12:12:54.607Z,31.50
2019-03-30T12:15:24.470Z,31.53
2019-03-30T12:17:54.290Z,29.57
2019-03-30T12:20:25.254Z,31.13
2019-03-30T12:22:55.344Z,32.60
2019-03-30T12:25:35.487Z,30.80
2019-03-30T12:27:58.145Z,29.37
2019-03-30T12:30:28.397Z,31.77
2019-03-30T12:32:59.302Z,32.60
2019-03-30T12:35:29.474Z,33.03
2019-03-30T12:37:59.982Z,32.07
2019-03-30T12:40:30.961Z,27.87
2019-03-30T12:43:01.392Z,25.80
2019-03-30T12:45:31.495Z,27.23
2019-03-30T12:48:01.627Z,27.20
2019-03-30T12:50:31.810Z,28.37
2019-03-30T12:53:01.698Z,25.07
2019-03-30T12:55:33.388Z,23.97
2019-03-30T12:58:03.255Z,27.77
2019-03-30T13:00:33.359Z,30.00
2019-03-30T13:03:03.200Z,31.70
2019-03-30T13:05:33.153Z,26.90
2019-03-30T13:08:03.164Z,31.07
2019-03-30T13:10:34.504Z,32.10
2019-03-30T13:13:04.801Z,32.87
2019-03-30T13:15:35.689Z,32.57
2019-03-30T13:18:06.228Z,31.83
2019-03-30T13:20:36.773Z,32.23
2019-03-30T13:23:07.223Z,32.17
2019-03-30T13:25:37.409Z,31.80
2019-03-30T13:28:07.260Z,30.83
2019-03-30T13:30:38.593Z,34.90
2019-03-30T13:33:12.560Z,37.63
2019-03-30T13:35:42.676Z,36.03
2019-03-30T13:38:13.626Z,36.93
2019-03-30T13:40:45.361Z,39.93
2019-03-30T13:43:15.541Z,35.07
2019-03-30T13:45:45.914Z,36.00
2019-03-30T13:48:16.052Z,36.43
2019-03-30T13:50:45.853Z,34.83
2019-03-30T13:53:15.769Z,35.70
2019-03-30T13:55:45.750Z,35.80
2019-03-30T13:58:15.623Z,37.37
2019-03-30T14:00:46.833Z,35.57
2019-03-30T14:03:17.305Z,34.00
2019-03-30T14:05:47.849Z,32.93
2019-03-30T14:08:18.412Z,34.80
2019-03-30T14:10:48.195Z,36.10
2019-03-30T14:13:19.783Z,36.33
2019-03-30T14:15:57.759Z,36.80
2019-03-30T14:18:27.905Z,35.37
2019-03-30T14:20:58.020Z,32.20
2019-03-30T14:23:27.859Z,34.70
2019-03-30T14:25:58.815Z,36.60
2019-03-30T14:28:29.169Z,39.80
2019-03-30T14:30:59.251Z,38.00
2019-03-30T14:33:30.228Z,38.47
2019-03-30T14:36:00.420Z,38.50
2019-03-30T14:38:30.273Z,38.97
2019-03-30T14:41:03.839Z,40.77
2019-03-30T14:43:33.493Z,38.80
2019-03-30T14:46:03.518Z,41.23
2019-03-30T14:48:34.113Z,34.13
2019-03-30T14:51:03.972Z,35.33
2019-03-30T14:53:34.046Z,31.73
2019-03-30T14:56:04.011Z,34.20
2019-03-30T14:58:35.617Z,34.07
2019-03-30T15:01:06.188Z,32.73
2019-03-30T15:03:36.230Z,36.07
2019-03-30T15:06:07.183Z,33.07
2019-03-30T15:08:38.276Z,36.23
2019-03-30T15:11:08.615Z,36.83
2019-03-30T15:13:38.408Z,42.03
2019-03-30T15:16:08.638Z,36.23
2019-03-30T15:18:39.101Z,34.43
2019-03-30T15:21:11.880Z,32.20
2019-03-30T15:23:42.825Z,34.03
2019-03-30T15:26:13.325Z,33.97
2019-03-30T15:28:43.703Z,33.07
2019-03-30T15:31:13.561Z,32.83
2019-03-30T15:33:43.720Z,34.17
2019-03-30T15:36:13.533Z,34.57
2019-03-30T15:38:43.692Z,35.47
2019-03-30T15:41:13.964Z,31.00
2019-03-30T15:43:44.178Z,29.70
2019-03-30T15:46:14.432Z,29.37
2019-03-30T15:48:44.663Z,28.97
2019-03-30T15:51:14.956Z,28.17
2019-03-30T15:53:45.594Z,30.07
2019-03-30T15:56:15.772Z,31.27
2019-03-30T15:58:45.715Z,29.57
2019-03-30T16:01:18.924Z,28.90
2019-03-30T16:03:51.699Z,28.43
2019-03-30T16:06:23.847Z,26.67
2019-03-30T16:08:53.817Z,28.03
2019-03-30T16:11:24.075Z,28.67
2019-03-30T16:13:57.750Z,28.97
2019-03-30T16:16:28.096Z,29.00
2019-03-30T16:18:58.137Z,29.47
2019-03-30T16:21:38.028Z,28.53
2019-03-30T16:24:08.000Z,27.97
2019-03-30T16:26:42.352Z,31.93
2019-03-30T16:29:12.720Z,32.13
2019-03-30T16:31:42.690Z,32.20
2019-03-30T16:34:13.151Z,30.60
2019-03-30T16:36:43.273Z,32.90
2019-03-30T16:39:14.051Z,33.33
2019-03-30T16:41:44.037Z,30.93
2019-03-30T16:44:18.516Z,29.73
2019-03-30T16:46:48.810Z,29.90
2019-03-30T16:49:19.010Z,28.50
2019-03-30T16:51:49.686Z,26.97
2019-03-30T16:54:19.741Z,24.20
2019-03-30T16:56:55.157Z,27.27
2019-03-30T16:59:26.910Z,26.93
2019-03-30T17:02:00.306Z,28.97
2019-03-30T17:04:35.705Z,27.00
2019-03-30T17:07:05.788Z,28.13
2019-03-30T17:09:45.205Z,29.87
2019-03-30T17:12:15.632Z,28.80
2019-03-30T17:14:45.958Z,29.07
2019-03-30T17:17:19.874Z,28.67
2019-03-30T17:19:49.939Z,29.30
2019-03-30T17:22:20.314Z,27.63
2019-03-30T17:24:50.971Z,28.63
2019-03-30T17:27:20.982Z,28.57
2019-03-30T17:29:51.817Z,28.27
2019-03-30T17:32:22.734Z,27.10
2019-03-30T17:34:52.659Z,27.17
2019-03-30T17:37:23.082Z,26.97
2019-03-30T17:39:53.250Z,28.57
2019-03-30T17:42:23.704Z,29.17
2019-03-30T17:44:54.128Z,27.73
2019-03-30T17:47:24.376Z,27.83
2019-03-30T17:49:54.547Z,27.07
2019-03-30T17:52:26.465Z,26.37
2019-03-30T17:54:58.175Z,29.00
2019-03-30T17:57:28.492Z,31.73
2019-03-30T17:59:59.273Z,28.90
2019-03-30T18:02:29.593Z,28.77
2019-03-30T18:05:00.106Z,27.03
2019-03-30T18:07:30.196Z,28.70
2019-03-30T18:10:03.306Z,28.70
2019-03-30T18:12:32.740Z,29.97
2019-03-30T18:15:03.064Z,31.53
2019-03-30T18:17:33.099Z,34.20
2019-03-30T18:20:03.058Z,33.60
2019-03-30T18:22:33.445Z,35.30
2019-03-30T18:25:03.699Z,34.97
2019-03-30T18:27:35.061Z,37.53
2019-03-30T18:30:06.047Z,38.00
2019-03-30T18:32:36.764Z,35.30
2019-03-30T18:35:06.781Z,37.27
2019-03-30T18:37:36.768Z,39.67
2019-03-30T18:40:08.077Z,37.13
2019-03-30T18:42:41.315Z,37.60
2019-03-30T18:45:22.266Z,36.60
2019-03-30T18:47:52.339Z,31.53
2019-03-30T18:50:23.141Z,28.23
2019-03-30T18:53:02.914Z,27.83
2019-03-30T18:55:33.253Z,27.17
2019-03-30T18:58:04.451Z,25.77
2019-03-30T19:00:37.141Z,26.77
2019-03-30T19:03:10.330Z,25.87
2019-03-30T19:05:41.026Z,24.70
2019-03-30T19:08:13.981Z,26.27
2019-03-30T19:10:44.515Z,26.67
2019-03-30T19:13:18.474Z,29.67
2019-03-30T19:15:49.329Z,26.03
2019-03-30T19:18:19.620Z,26.00
2019-03-30T19:20:50.069Z,28.07
2019-03-30T19:23:21.059Z,29.03
2019-03-30T19:25:52.148Z,28.33
2019-03-30T19:28:22.079Z,29.13
2019-03-30T19:30:52.484Z,29.63
2019-03-30T19:33:25.578Z,27.83
2019-03-30T19:35:55.640Z,27.90
2019-03-30T19:38:27.171Z,26.90
2019-03-30T19:40:57.378Z,30.33
2019-03-30T19:43:30.136Z,32.70
2019-03-30T19:46:00.372Z,31.67
2019-03-30T19:48:30.661Z,31.53
2019-03-30T19:51:01.624Z,31.13
2019-03-30T19:53:34.754Z,29.37
2019-03-30T19:56:05.695Z,33.60
2019-03-30T19:58:36.432Z,32.07
2019-03-30T20:01:06.526Z,32.60
2019-03-30T20:03:36.508Z,30.80
2019-03-30T20:06:06.568Z,30.40
2019-03-30T20:08:36.808Z,34.30
2019-03-30T20:11:06.705Z,35.57
2019-03-30T20:13:36.594Z,35.17
2019-03-30T20:16:06.614Z,36.10
2019-03-30T20:18:36.485Z,35.53
2019-03-30T20:21:07.252Z,38.60
2019-03-30T20:23:37.569Z,39.50
2019-03-30T20:26:07.734Z,36.90
2019-03-30T20:28:38.434Z,37.97
2019-03-30T20:31:08.384Z,39.93
2019-03-30T20:33:38.568Z,39.07
2019-03-30T20:36:08.937Z,38.97
2019-03-30T20:38:39.281Z,43.28
2019-03-30T20:41:11.283Z,45.98
2019-03-30T20:43:41.535Z,41.00
2019-03-30T20:46:11.671Z,40.20
2019-03-30T20:48:41.680Z,39.33
2019-03-30T20:51:11.781Z,39.43
2019-03-30T20:53:42.317Z,39.20
2019-03-30T20:56:15.633Z,42.43
2019-03-30T20:58:45.630Z,41.93
2019-03-30T21:01:16.000Z,40.73
2019-03-30T21:03:46.284Z,41.47
2019-03-30T21:06:16.541Z,39.93
2019-03-30T21:08:46.733Z,43.97
2019-03-30T21:11:17.113Z,42.33
2019-03-30T21:13:47.034Z,42.80
2019-03-30T21:16:17.161Z,42.80
2019-03-30T21:18:47.241Z,42.73
2019-03-30T21:21:20.205Z,42.33
2019-03-30T21:23:50.182Z,41.23
2019-03-30T21:26:20.240Z,41.43
2019-03-30T21:28:50.310Z,43.67
2019-03-30T21:31:20.372Z,44.77
2019-03-30T21:33:50.373Z,45.43
2019-03-30T21:36:20.274Z,45.20
2019-03-30T21:38:50.331Z,42.03
2019-03-30T21:41:20.851Z,43.53
2019-03-30T21:43:50.836Z,45.77
2019-03-30T21:46:21.470Z,43.93
2019-03-30T21:48:53.405Z,45.07
2019-03-30T21:51:35.817Z,55.73
2019-03-30T21:54:05.851Z,55.52
2019-03-30T21:56:35.894Z,58.02
2019-03-30T21:59:06.350Z,49.40
2019-03-30T22:01:42.152Z,46.07
2019-03-30T22:04:35.578Z,43.77
2019-03-30T22:07:16.991Z,41.37
2019-03-30T22:09:49.982Z,44.07
2019-03-30T22:12:20.142Z,44.13
2019-03-30T22:14:50.386Z,43.20
2019-03-30T22:17:23.042Z,44.00
2019-03-30T22:19:53.306Z,47.03
2019-03-30T22:22:23.397Z,45.07
2019-03-30T22:24:54.586Z,45.77
2019-03-30T22:27:25.053Z,47.67
2019-03-30T22:29:55.563Z,45.60
2019-03-30T22:32:27.960Z,43.67
2019-03-30T22:34:57.917Z,45.70
2019-03-30T22:37:30.996Z,47.07
2019-03-30T22:40:01.290Z,47.90
2019-03-30T22:42:31.158Z,44.80
2019-03-30T22:45:03.183Z,49.03
2019-03-30T22:47:33.174Z,44.63
2019-03-30T22:50:03.171Z,47.63
2019-03-30T22:52:33.500Z,45.33
2019-03-30T22:55:12.685Z,48.57
2019-03-30T22:57:44.458Z,49.77
2019-03-30T23:00:38.658Z,49.83
2019-03-30T23:03:05.954Z,51.83
2019-03-30T23:05:38.573Z,51.57
2019-03-30T23:08:13.627Z,50.67
2019-03-30T23:10:43.672Z,53.23
2019-03-30T23:13:13.574Z,51.80
2019-03-30T23:15:44.806Z,52.83
2019-03-30T23:18:14.686Z,54.87
2019-03-30T23:20:44.869Z,53.27
2019-03-30T23:23:14.861Z,55.00
2019-03-30T23:25:44.989Z,57.30
2019-03-30T23:28:15.586Z,56.70
2019-03-30T23:30:54.214Z,55.67
2019-03-30T23:33:17.687Z,56.80
2019-03-30T23:35:48.119Z,59.93
2019-03-30T23:38:19.321Z,56.93
2019-03-30T23:40:49.564Z,56.80
2019-03-30T23:43:22.271Z,61.07
2019-03-30T23:45:52.640Z,60.77
2019-03-30T23:48:25.375Z,59.87
2019-03-30T23:50:55.859Z,59.07
2019-03-30T23:53:28.507Z,59.27
2019-03-30T23:56:00.064Z,56.57
2019-03-30T23:58:30.307Z,57.83
